createdAt,value
2022-08-22T00:01:52.457Z,99.90
2022-08-22T00:02:58.682Z,99.90
2022-08-22T00:03:01.016Z,99.90
2022-08-22T00:03:03.715Z,77.80
2022-08-22T00:03:12.734Z,99.90
2022-08-22T00:04:29.567Z,99.90
2022-08-22T00:07:08.366Z,99.90
2022-08-22T00:09:48.167Z,99.90
2022-08-22T00:12:22.613Z,99.90
2022-08-22T00:15:02.381Z,99.90
2022-08-22T00:17:40.922Z,99.90
2022-08-22T00:20:14.422Z,99.90
2022-08-22T00:22:51.890Z,99.90
2022-08-22T00:25:45.407Z,99.90
2022-08-22T00:28:20.200Z,99.90
2022-08-22T00:30:55.404Z,99.90
2022-08-22T00:33:35.153Z,99.90
2022-08-22T00:36:17.516Z,99.90
2022-08-22T00:38:49.823Z,99.90
2022-08-22T00:41:37.906Z,99.90
2022-08-22T00:44:41.980Z,99.90
2022-08-22T00:47:37.340Z,99.90
2022-08-22T00:50:28.534Z,99.90
2022-08-22T00:53:25.544Z,99.90
2022-08-22T00:56:08.342Z,99.90
2022-08-22T00:59:01.219Z,99.90
2022-08-22T01:01:58.998Z,99.90
2022-08-22T01:04:49.935Z,99.90
2022-08-22T01:07:38.300Z,99.90
2022-08-22T01:10:27.514Z,99.90
2022-08-22T01:13:20.439Z,99.90
2022-08-22T01:15:55.286Z,99.90
2022-08-22T01:18:58.841Z,99.90
2022-08-22T01:22:20.121Z,99.90
2022-08-22T01:25:39.821Z,99.90
2022-08-22T01:29:02.047Z,99.90
2022-08-22T01:32:05.643Z,99.90
2022-08-22T01:35:20.461Z,99.90
2022-08-22T01:38:32.523Z,99.90
2022-08-22T01:41:24.807Z,99.90
2022-08-22T01:44:18.098Z,99.90
2022-08-22T01:46:55.380Z,99.90
2022-08-22T01:49:30.110Z,99.90
2022-08-22T01:52:06.744Z,99.90
2022-08-22T01:54:45.908Z,99.90
2022-08-22T01:57:18.730Z,99.90
2022-08-22T01:59:50.074Z,99.90
2022-08-22T02:02:35.851Z,99.90
2022-08-22T02:05:10.346Z,99.90
2022-08-22T02:07:49.121Z,99.90
2022-08-22T02:10:22.207Z,99.90
2022-08-22T02:13:00.922Z,99.90
2022-08-22T02:15:45.110Z,99.90
2022-08-22T02:18:21.893Z,99.90
2022-08-22T02:21:00.106Z,99.90
2022-08-22T02:23:45.570Z,99.90
2022-08-22T02:26:22.076Z,99.90
2022-08-22T02:28:58.066Z,99.90
2022-08-22T02:31:38.155Z,99.90
2022-08-22T02:34:24.250Z,99.90
2022-08-22T02:36:58.256Z,99.90
2022-08-22T02:39:36.791Z,99.90
2022-08-22T02:42:18.310Z,99.90
2022-08-22T02:44:57.195Z,99.90
2022-08-22T02:47:34.511Z,99.90
2022-08-22T02:50:12.941Z,99.90
2022-08-22T02:52:57.186Z,99.90
2022-08-22T02:55:43.689Z,99.90
2022-08-22T02:58:21.005Z,99.90
2022-08-22T03:00:52.809Z,99.90
2022-08-22T03:03:28.790Z,99.90
2022-08-22T03:06:02.273Z,99.90
2022-08-22T03:08:34.475Z,99.90
2022-08-22T03:11:16.968Z,99.90
2022-08-22T03:13:57.022Z,99.90
2022-08-22T03:16:33.913Z,99.90
2022-08-22T03:19:08.454Z,99.90
2022-08-22T03:21:53.451Z,99.90
2022-08-22T03:24:33.303Z,99.90
2022-08-22T03:27:08.873Z,99.90
2022-08-22T03:29:39.573Z,99.90
2022-08-22T03:32:15.843Z,99.90
2022-08-22T03:34:57.482Z,99.90
2022-08-22T03:37:37.491Z,99.90
2022-08-22T03:40:22.829Z,99.90
2022-08-22T03:43:12.767Z,99.90
2022-08-22T03:46:18.283Z,99.90
2022-08-22T03:49:22.758Z,99.90
2022-08-22T03:52:07.737Z,99.90
2022-08-22T03:55:08.454Z,99.90
2022-08-22T03:58:17.160Z,99.90
2022-08-22T04:01:22.858Z,99.90
2022-08-22T04:04:22.556Z,99.90
2022-08-22T04:07:28.289Z,99.90
2022-08-22T04:10:27.751Z,99.90
2022-08-22T04:13:31.335Z,99.90
2022-08-22T04:16:29.901Z,99.90
2022-08-22T04:19:15.972Z,99.90
2022-08-22T04:22:12.142Z,99.90
2022-08-22T04:25:07.595Z,99.90
2022-08-22T04:27:42.207Z,99.90
2022-08-22T04:30:22.936Z,99.90
2022-08-22T04:32:58.217Z,99.90
2022-08-22T04:35:32.610Z,99.90
2022-08-22T04:38:05.653Z,99.90
2022-08-22T04:40:39.581Z,99.90
2022-08-22T04:43:15.744Z,99.90
2022-08-22T04:45:52.974Z,99.90
2022-08-22T04:48:30.394Z,99.90
2022-08-22T04:51:03.136Z,99.90
2022-08-22T04:53:57.375Z,99.90
2022-08-22T04:56:34.472Z,99.90
2022-08-22T04:59:10.311Z,99.90
2022-08-22T05:01:47.326Z,99.90
2022-08-22T05:04:23.071Z,99.90
2022-08-22T05:06:55.338Z,99.90
2022-08-22T05:09:29.965Z,99.90
2022-08-22T05:12:04.999Z,99.90
2022-08-22T05:14:39.434Z,99.90
2022-08-22T05:17:16.967Z,99.90
2022-08-22T05:19:50.649Z,99.90
2022-08-22T05:22:24.614Z,99.90
2022-08-22T05:24:57.191Z,99.90
2022-08-22T05:27:27.795Z,99.90
2022-08-22T05:30:02.142Z,99.90
2022-08-22T05:32:40.863Z,99.90
2022-08-22T05:35:10.605Z,99.90
2022-08-22T05:37:45.813Z,99.90
2022-08-22T05:40:21.453Z,99.90
2022-08-22T05:42:49.998Z,99.90
2022-08-22T05:45:20.143Z,99.90
2022-08-22T05:47:53.578Z,99.90
2022-08-22T05:50:35.614Z,99.90
2022-08-22T05:53:10.333Z,99.90
2022-08-22T05:55:47.635Z,99.90
2022-08-22T05:58:38.027Z,99.90
2022-08-22T06:01:22.171Z,99.90
2022-08-22T06:04:00.284Z,99.90
2022-08-22T06:06:30.649Z,99.90
2022-08-22T06:09:04.026Z,99.90
2022-08-22T06:11:40.295Z,99.90
2022-08-22T06:14:14.951Z,99.90
2022-08-22T06:16:48.902Z,99.90
2022-08-22T06:19:20.754Z,99.90
2022-08-22T06:21:51.724Z,99.90
2022-08-22T06:24:25.174Z,99.90
2022-08-22T06:26:58.158Z,99.90
2022-08-22T06:29:35.080Z,99.90
2022-08-22T06:32:14.279Z,99.90
2022-08-22T06:34:47.397Z,99.90
2022-08-22T06:37:24.164Z,99.90
2022-08-22T06:39:55.701Z,99.90
2022-08-22T06:42:28.243Z,99.90
2022-08-22T06:45:02.841Z,99.90
2022-08-22T06:47:37.851Z,99.90
2022-08-22T06:50:16.548Z,99.90
2022-08-22T06:52:54.787Z,99.90
2022-08-22T06:55:27.327Z,99.90
2022-08-22T06:57:58.774Z,99.90
2022-08-22T07:00:29.328Z,99.90
2022-08-22T07:03:01.565Z,99.90
2022-08-22T07:05:36.945Z,99.90
2022-08-22T07:08:10.001Z,99.90
2022-08-22T07:10:42.334Z,99.90
2022-08-22T07:13:16.029Z,99.90
2022-08-22T07:15:44.989Z,99.90
2022-08-22T07:18:19.872Z,99.90
2022-08-22T07:20:55.032Z,99.90
2022-08-22T07:23:32.598Z,99.90
2022-08-22T07:26:18.657Z,99.90
2022-08-22T07:28:58.570Z,99.90
2022-08-22T07:31:35.122Z,99.90
2022-08-22T07:34:23.148Z,99.90
2022-08-22T07:37:00.458Z,99.90
2022-08-22T07:39:33.967Z,99.90
2022-08-22T07:42:10.426Z,99.90
2022-08-22T07:45:05.213Z,99.90
2022-08-22T07:47:49.186Z,99.90
2022-08-22T07:50:25.331Z,99.90
2022-08-22T07:52:59.837Z,99.90
2022-08-22T07:55:28.628Z,99.90
2022-08-22T07:58:00.686Z,99.90
2022-08-22T08:00:30.030Z,99.90
2022-08-22T08:03:05.747Z,99.90
2022-08-22T08:05:39.154Z,99.90
2022-08-22T08:08:19.868Z,99.90
2022-08-22T08:10:51.284Z,99.90
2022-08-22T08:13:25.661Z,99.90
2022-08-22T08:15:54.545Z,99.90
2022-08-22T08:18:25.984Z,99.90
2022-08-22T08:20:58.699Z,99.90
2022-08-22T08:23:31.511Z,99.90
2022-08-22T08:26:06.192Z,99.90
2022-08-22T08:28:40.819Z,99.90
2022-08-22T08:31:21.895Z,99.90
2022-08-22T08:33:54.411Z,99.90
2022-08-22T08:36:36.857Z,99.90
2022-08-22T08:39:14.487Z,99.90
2022-08-22T08:42:23.286Z,99.90
2022-08-22T08:45:18.993Z,99.90
2022-08-22T08:48:24.251Z,99.90
2022-08-22T08:51:09.821Z,99.90
2022-08-22T08:53:58.534Z,99.90
2022-08-22T08:56:36.918Z,99.90
2022-08-22T08:59:19.114Z,99.90
2022-08-22T09:02:13.713Z,99.90
2022-08-22T09:05:21.621Z,99.90
2022-08-22T09:08:11.997Z,99.90
2022-08-22T09:11:12.064Z,99.90
2022-08-22T09:13:55.674Z,99.90
2022-08-22T09:16:46.261Z,99.90
2022-08-22T09:19:56.493Z,99.90
2022-08-22T09:22:50.743Z,99.90
2022-08-22T09:25:24.924Z,99.90
2022-08-22T09:28:00.960Z,99.90
2022-08-22T09:30:56.716Z,99.90
2022-08-22T09:33:36.400Z,99.90
2022-08-22T09:36:12.674Z,99.90
2022-08-22T09:38:50.864Z,99.90
2022-08-22T09:41:33.742Z,99.90
2022-08-22T09:44:13.296Z,99.90
2022-08-22T09:46:56.286Z,99.30
2022-08-22T09:49:34.859Z,98.30
2022-08-22T09:52:31.981Z,97.70
2022-08-22T09:55:11.803Z,97.60
2022-08-22T09:57:52.014Z,97.80
2022-08-22T10:00:32.453Z,98.40
2022-08-22T10:03:12.288Z,98.60
2022-08-22T10:05:48.220Z,98.10
2022-08-22T10:08:45.759Z,97.40
2022-08-22T10:11:24.579Z,98.60
2022-08-22T10:14:01.167Z,97.50
2022-08-22T10:16:52.158Z,96.60
2022-08-22T10:19:29.648Z,97.50
2022-08-22T10:22:22.311Z,97.40
2022-08-22T10:25:01.316Z,98.30
2022-08-22T10:27:44.794Z,98.40
2022-08-22T10:30:18.041Z,97.50
2022-08-22T10:32:58.669Z,96.40
2022-08-22T10:35:33.912Z,96.00
2022-08-22T10:38:11.104Z,96.60
2022-08-22T10:40:49.270Z,93.90
2022-08-22T10:43:28.735Z,94.40
2022-08-22T10:46:04.179Z,93.50
2022-08-22T10:48:47.859Z,94.30
2022-08-22T10:51:30.201Z,94.70
2022-08-22T10:54:19.952Z,94.30
2022-08-22T10:56:56.553Z,91.60
2022-08-22T10:59:40.329Z,89.50
2022-08-22T11:02:39.476Z,86.90
2022-08-22T11:05:24.640Z,83.60
2022-08-22T11:08:06.413Z,87.10
2022-08-22T11:10:52.296Z,87.30
2022-08-22T11:13:28.989Z,83.90
2022-08-22T11:16:04.292Z,81.00
2022-08-22T11:19:01.908Z,82.60
2022-08-22T11:21:45.852Z,79.30
2022-08-22T11:25:07.741Z,78.40
2022-08-22T11:27:48.653Z,76.40
2022-08-22T11:30:21.792Z,74.30
2022-08-22T11:33:14.614Z,73.80
2022-08-22T11:35:45.514Z,70.00
2022-08-22T11:38:32.083Z,68.50
2022-08-22T11:41:10.519Z,70.00
2022-08-22T11:43:48.870Z,69.10
2022-08-22T11:46:26.079Z,68.00
2022-08-22T11:49:07.581Z,69.20
2022-08-22T11:52:10.569Z,70.10
2022-08-22T11:55:07.106Z,68.10
2022-08-22T11:57:44.937Z,65.60
2022-08-22T12:00:26.315Z,66.40
2022-08-22T12:03:30.332Z,64.50
2022-08-22T12:06:06.128Z,63.40
2022-08-22T12:09:20.070Z,62.40
2022-08-22T12:12:09.211Z,63.10
2022-08-22T12:14:43.702Z,63.10
2022-08-22T12:17:51.033Z,60.80
2022-08-22T12:20:45.343Z,61.50
2022-08-22T12:23:49.269Z,62.40
2022-08-22T12:26:30.877Z,61.80
2022-08-22T12:29:17.061Z,63.10
2022-08-22T12:32:34.015Z,61.80
2022-08-22T12:35:30.002Z,60.20
2022-08-22T12:38:28.798Z,59.40
2022-08-22T12:41:40.043Z,60.20
2022-08-22T12:44:28.307Z,60.90
2022-08-22T12:47:11.254Z,59.10
2022-08-22T12:49:56.535Z,58.90
2022-08-22T12:52:45.716Z,58.50
2022-08-22T12:55:27.411Z,59.10
2022-08-22T12:58:07.815Z,58.60
2022-08-22T13:00:40.265Z,59.20
2022-08-22T13:03:22.299Z,58.90
2022-08-22T13:05:59.155Z,58.90
2022-08-22T13:08:32.289Z,58.30
2022-08-22T13:11:03.141Z,58.30
2022-08-22T13:13:40.881Z,59.70
2022-08-22T13:16:12.018Z,58.10
2022-08-22T13:18:53.476Z,58.60
2022-08-22T13:21:31.840Z,57.70
2022-08-22T13:24:10.797Z,56.90
2022-08-22T13:26:49.494Z,57.00
2022-08-22T13:29:26.115Z,57.90
2022-08-22T13:32:01.498Z,58.20
2022-08-22T13:34:40.562Z,57.70
2022-08-22T13:37:16.701Z,57.90
2022-08-22T13:39:48.967Z,60.50
2022-08-22T13:42:27.813Z,60.90
2022-08-22T13:45:04.285Z,61.00
2022-08-22T13:47:39.497Z,60.00
2022-08-22T13:50:15.003Z,59.90
2022-08-22T13:52:52.432Z,60.50
2022-08-22T13:55:30.805Z,59.60
2022-08-22T13:58:06.760Z,59.10
2022-08-22T14:01:28.287Z,59.00
2022-08-22T14:04:00.045Z,59.40
2022-08-22T14:06:38.342Z,59.70
2022-08-22T14:09:17.361Z,59.60
2022-08-22T14:12:12.104Z,59.20
2022-08-22T14:14:46.009Z,59.80
2022-08-22T14:17:20.970Z,60.00
2022-08-22T14:19:59.643Z,59.60
2022-08-22T14:22:36.845Z,59.80
2022-08-22T14:25:10.941Z,59.60
2022-08-22T14:27:43.927Z,59.30
2022-08-22T14:30:17.008Z,59.70
2022-08-22T14:32:51.394Z,60.10
2022-08-22T14:35:35.099Z,59.60
2022-08-22T14:38:27.423Z,58.90
2022-08-22T14:41:03.172Z,59.00
2022-08-22T14:43:52.955Z,58.60
2022-08-22T14:46:26.932Z,58.90
2022-08-22T14:49:25.318Z,59.00
2022-08-22T14:52:01.207Z,58.60
2022-08-22T14:54:34.519Z,59.40
2022-08-22T14:57:10.418Z,59.80
2022-08-22T14:59:50.156Z,59.40
2022-08-22T15:02:26.188Z,59.00
2022-08-22T15:05:01.471Z,59.40
2022-08-22T15:07:33.364Z,59.90
2022-08-22T15:10:11.998Z,59.90
2022-08-22T15:12:49.847Z,60.40
2022-08-22T15:15:32.567Z,59.50
2022-08-22T15:18:18.297Z,60.40
2022-08-22T15:20:52.079Z,59.90
2022-08-22T15:23:24.492Z,59.80
2022-08-22T15:26:03.830Z,60.60
2022-08-22T15:28:52.277Z,60.30
2022-08-22T15:31:22.845Z,59.70
2022-08-22T15:33:53.995Z,58.90
2022-08-22T15:36:27.128Z,59.30
2022-08-22T15:39:18.832Z,59.30
2022-08-22T15:41:51.615Z,58.70
2022-08-22T15:44:32.934Z,59.20
2022-08-22T15:47:24.115Z,59.40
2022-08-22T15:49:58.842Z,59.90
2022-08-22T15:52:30.695Z,59.50
2022-08-22T15:55:29.356Z,59.30
2022-08-22T15:58:05.621Z,58.90
2022-08-22T16:00:43.777Z,58.80
2022-08-22T16:03:24.564Z,58.60
2022-08-22T16:05:58.837Z,59.20
2022-08-22T16:08:32.831Z,58.10
2022-08-22T16:11:32.994Z,58.20
2022-08-22T16:14:22.347Z,58.00
2022-08-22T16:16:58.252Z,57.80
2022-08-22T16:19:28.628Z,57.80
2022-08-22T16:22:14.147Z,58.10
2022-08-22T16:25:10.716Z,58.00
2022-08-22T16:27:57.237Z,57.80
2022-08-22T16:30:36.889Z,57.80
2022-08-22T16:33:07.028Z,58.00
2022-08-22T16:36:24.213Z,58.10
2022-08-22T16:38:56.395Z,58.80
2022-08-22T16:41:32.298Z,58.60
2022-08-22T16:44:41.401Z,59.00
2022-08-22T16:47:17.959Z,58.90
2022-08-22T16:50:09.175Z,59.50
2022-08-22T16:52:53.722Z,59.30
2022-08-22T16:56:04.345Z,59.20
2022-08-22T16:59:19.304Z,59.20
2022-08-22T17:02:12.435Z,59.50
2022-08-22T17:04:55.147Z,59.80
2022-08-22T17:07:36.479Z,59.30
2022-08-22T17:10:36.449Z,59.30
2022-08-22T17:13:18.402Z,58.90
2022-08-22T17:16:02.786Z,59.70
2022-08-22T17:18:48.427Z,59.90
2022-08-22T17:21:26.143Z,60.30
2022-08-22T17:24:06.883Z,59.90
2022-08-22T17:26:56.491Z,60.00
2022-08-22T17:29:41.912Z,60.30
2022-08-22T17:32:18.056Z,60.20
2022-08-22T17:35:00.077Z,60.60
2022-08-22T17:37:44.834Z,60.70
2022-08-22T17:40:29.545Z,61.30
2022-08-22T17:43:33.468Z,61.50
2022-08-22T17:46:41.217Z,61.90
2022-08-22T17:49:25.401Z,62.00
2022-08-22T17:52:00.760Z,62.20
2022-08-22T17:54:40.339Z,62.30
2022-08-22T17:57:13.214Z,62.80
2022-08-22T17:59:50.642Z,63.70
2022-08-22T18:02:27.957Z,63.90
2022-08-22T18:05:04.194Z,64.20
2022-08-22T18:07:50.169Z,63.70
2022-08-22T18:10:31.906Z,64.00
2022-08-22T18:13:08.890Z,64.50
2022-08-22T18:15:45.743Z,64.60
2022-08-22T18:18:26.988Z,64.60
2022-08-22T18:21:07.860Z,64.70
2022-08-22T18:23:40.822Z,65.40
2022-08-22T18:26:24.687Z,65.70
2022-08-22T18:29:01.289Z,65.90
2022-08-22T18:31:47.487Z,66.10
2022-08-22T18:34:26.539Z,66.40
2022-08-22T18:37:02.935Z,66.80
2022-08-22T18:39:43.199Z,67.10
2022-08-22T18:42:29.210Z,67.50
2022-08-22T18:44:57.795Z,67.80
2022-08-22T18:47:32.641Z,67.50
2022-08-22T18:50:29.674Z,67.60
2022-08-22T18:53:01.149Z,68.50
2022-08-22T18:55:46.670Z,68.70
2022-08-22T18:58:58.928Z,69.30
2022-08-22T19:01:48.598Z,69.40
2022-08-22T19:04:55.761Z,70.20
2022-08-22T19:07:45.293Z,70.70
2022-08-22T19:10:41.548Z,71.00
2022-08-22T19:13:45.753Z,71.50
2022-08-22T19:16:32.919Z,71.90
2022-08-22T19:19:04.467Z,72.90
2022-08-22T19:22:06.135Z,73.80
2022-08-22T19:24:57.988Z,74.30
2022-08-22T19:27:31.536Z,75.40
2022-08-22T19:30:07.160Z,76.10
2022-08-22T19:33:12.172Z,76.50
2022-08-22T19:36:02.680Z,77.30
2022-08-22T19:38:57.783Z,78.00
2022-08-22T19:41:47.173Z,78.10
2022-08-22T19:44:37.596Z,77.80
2022-08-22T19:47:36.080Z,78.50
2022-08-22T19:50:13.862Z,79.00
2022-08-22T19:52:56.668Z,79.60
2022-08-22T19:55:34.285Z,80.30
2022-08-22T19:58:16.665Z,80.90
2022-08-22T20:00:54.546Z,81.20
2022-08-22T20:03:37.524Z,81.50
2022-08-22T20:06:33.556Z,82.20
2022-08-22T20:09:22.410Z,82.70
2022-08-22T20:12:05.130Z,83.30
2022-08-22T20:14:38.346Z,84.00
2022-08-22T20:17:13.261Z,84.70
2022-08-22T20:22:46.566Z,86.30
2022-08-22T20:25:43.061Z,87.00
2022-08-22T20:28:32.196Z,87.40
2022-08-22T20:31:03.314Z,88.40
2022-08-22T20:33:36.278Z,89.20
2022-08-22T20:36:28.168Z,90.00
2022-08-22T20:39:01.537Z,90.40
2022-08-22T20:41:35.459Z,90.80
2022-08-22T20:44:12.242Z,91.20
2022-08-22T20:46:53.849Z,91.60
2022-08-22T20:49:29.348Z,92.00
2022-08-22T20:52:06.993Z,92.40
2022-08-22T20:54:38.700Z,92.80
2022-08-22T20:57:16.019Z,93.00
2022-08-22T20:59:53.456Z,93.20
2022-08-22T21:02:28.522Z,93.50
2022-08-22T21:05:02.086Z,93.80
2022-08-22T21:07:34.062Z,94.10
2022-08-22T21:10:24.812Z,94.40
2022-08-22T21:13:05.152Z,94.60
2022-08-22T21:15:48.299Z,95.10
2022-08-22T21:18:27.875Z,95.60
2022-08-22T21:21:17.070Z,95.90
2022-08-22T21:23:51.824Z,96.50
2022-08-22T21:26:25.126Z,96.60
2022-08-22T21:28:59.971Z,96.60
2022-08-22T21:31:32.284Z,96.70
2022-08-22T21:34:05.753Z,96.80
2022-08-22T21:36:39.494Z,96.90
2022-08-22T21:39:20.570Z,97.20
2022-08-22T21:41:52.497Z,97.60
2022-08-22T21:44:29.618Z,97.80
2022-08-22T21:46:58.980Z,97.80
2022-08-22T21:49:29.355Z,97.80
2022-08-22T21:51:57.681Z,98.00
2022-08-22T21:54:41.635Z,98.10
2022-08-22T21:57:19.615Z,98.10
2022-08-22T21:59:51.895Z,98.20
2022-08-22T22:02:31.231Z,98.30
2022-08-22T22:05:00.949Z,98.40
2022-08-22T22:07:30.510Z,98.70
2022-08-22T22:10:00.228Z,98.90
2022-08-22T22:12:28.829Z,99.20
2022-08-22T22:14:57.943Z,99.50
2022-08-22T22:17:26.182Z,99.90
2022-08-22T22:19:57.510Z,99.90
2022-08-22T22:22:27.928Z,99.90
2022-08-22T22:24:56.149Z,99.90
2022-08-22T22:27:25.890Z,99.90
2022-08-22T22:29:54.088Z,99.90
2022-08-22T22:32:22.278Z,99.90
2022-08-22T22:34:52.973Z,99.90
2022-08-22T22:37:21.187Z,99.90
2022-08-22T22:39:51.735Z,99.90
2022-08-22T22:42:20.655Z,99.90
2022-08-22T22:44:50.822Z,99.90
2022-08-22T22:47:19.040Z,99.90
2022-08-22T22:49:47.350Z,99.90
2022-08-22T22:52:15.589Z,99.90
2022-08-22T22:54:43.762Z,99.90
2022-08-22T22:57:14.573Z,99.90
2022-08-22T22:59:49.315Z,99.90
2022-08-22T23:02:23.257Z,99.90
2022-08-22T23:04:56.901Z,99.90
2022-08-22T23:07:27.006Z,99.90
2022-08-22T23:09:56.920Z,99.90
2022-08-22T23:12:28.087Z,99.90
2022-08-22T23:14:57.680Z,99.90
2022-08-22T23:17:25.832Z,99.90
2022-08-22T23:19:54.047Z,99.90
2022-08-22T23:22:22.220Z,99.90
2022-08-22T23:24:50.961Z,99.90
2022-08-22T23:27:19.537Z,99.90
2022-08-22T23:29:50.556Z,99.90
2022-08-22T23:37:51.972Z,99.90
2022-08-22T23:40:23.686Z,99.90
2022-08-22T23:42:51.878Z,99.90
2022-08-22T23:45:21.504Z,99.90
2022-08-22T23:47:49.789Z,99.90
2022-08-22T23:50:18.032Z,99.90
2022-08-22T23:52:46.273Z,99.90
2022-08-22T23:55:14.662Z,99.90
2022-08-22T23:57:46.483Z,99.90
